Time;durP1;ratioP1;P1;durP2;ratioP2;P2;SDS_P1;SDS_P2;PMS_P1;PMS_P2;Temp;Humidity;BMP_temperature;BMP_pressure;BME280_temperature;BME280_humidity;BME280_pressure;Samples;Min_cycle;Max_cycle;Signal;HPM_P1;HPM_P2
2021/05/05 00:00:56;;;;;;;1.50;0.70;;;10.20;91.70;;;;;;4958868;28;20203;-79
2021/05/05 00:03:22;;;;;;;1.30;0.70;;;10.10;91.60;;;;;;4975591;28;20193;-79
2021/05/05 00:05:47;;;;;;;3.13;0.70;;;10.10;92.00;;;;;;4957826;28;20199;-79
2021/05/05 00:08:13;;;;;;;1.60;0.80;;;10.10;92.00;;;;;;4974614;28;20175;-79
2021/05/05 00:10:39;;;;;;;2.17;0.60;;;10.10;92.40;;;;;;4975140;28;20180;-79
2021/05/05 00:13:05;;;;;;;1.50;0.80;;;10.10;92.40;;;;;;4974844;28;20602;-79
2021/05/05 00:15:30;;;;;;;3.10;0.80;;;10.00;92.40;;;;;;4957553;28;20183;-79
2021/05/05 00:17:56;;;;;;;2.17;0.97;;;10.00;92.50;;;;;;4974235;28;20226;-79
2021/05/05 00:20:22;;;;;;;2.63;0.75;;;10.00;92.40;;;;;;4974544;28;20238;-79
2021/05/05 00:22:49;;;;;;;2.53;0.80;;;10.00;92.60;;;;;;4974587;28;20191;-79
2021/05/05 00:25:15;;;;;;;1.45;0.80;;;10.00;92.70;;;;;;4982004;28;20160;-79
2021/05/05 00:27:41;;;;;;;3.55;1.08;;;10.00;92.90;;;;;;4941003;28;20179;-79
2021/05/05 00:30:10;;;;;;;1.60;0.67;;;10.00;93.10;;;;;;4976694;28;20318;-79
2021/05/05 00:32:35;;;;;;;2.03;1.00;;;10.00;93.00;;;;;;4959400;28;20576;-79
2021/05/05 00:35:02;;;;;;;1.50;0.80;;;10.00;92.80;;;;;;4974336;28;20172;-79
2021/05/05 00:37:28;;;;;;;2.13;0.90;;;10.00;92.70;;;;;;4956416;28;20617;-79
2021/05/05 00:39:55;;;;;;;3.50;1.40;;;10.00;92.80;;;;;;4974294;28;20188;-79
2021/05/05 00:42:21;;;;;;;3.30;1.38;;;10.00;92.70;;;;;;4974300;28;20628;-79
2021/05/05 00:44:47;;;;;;;4.22;1.55;;;10.00;92.80;;;;;;4974018;28;20636;-79
2021/05/05 00:47:13;;;;;;;4.90;2.40;;;10.00;92.80;;;;;;4973733;28;20172;-79
2021/05/05 00:49:39;;;;;;;3.17;1.63;;;10.00;92.80;;;;;;4974032;28;20191;-79
2021/05/05 00:52:08;;;;;;;2.90;1.58;;;10.00;92.90;;;;;;4973903;28;20178;-79
2021/05/05 00:54:34;;;;;;;1.63;1.20;;;10.00;92.90;;;;;;4974127;28;20266;-79
2021/05/05 00:57:01;;;;;;;2.05;1.30;;;10.00;93.00;;;;;;4973903;28;20203;-79
2021/05/05 00:59:27;;;;;;;2.80;1.27;;;10.00;92.90;;;;;;4956508;28;20210;-79
2021/05/05 01:01:53;;;;;;;6.70;1.48;;;9.90;93.40;;;;;;4974042;28;20175;-79
2021/05/05 01:04:20;;;;;;;2.40;1.38;;;9.90;93.50;;;;;;4940969;28;20176;-79
2021/05/05 01:06:47;;;;;;;6.45;1.80;;;9.80;93.40;;;;;;4973868;28;20175;-79
2021/05/05 01:09:14;;;;;;;2.65;1.38;;;9.80;93.40;;;;;;4977825;28;20294;-78
2021/05/05 01:11:41;;;;;;;2.95;1.20;;;9.80;93.60;;;;;;4956580;28;20172;-78
2021/05/05 01:14:10;;;;;;;5.50;1.33;;;9.70;93.60;;;;;;4956028;28;20239;-78
2021/05/05 01:16:36;;;;;;;3.25;1.55;;;9.70;93.70;;;;;;4973297;28;20261;-78
2021/05/05 01:19:03;;;;;;;3.95;1.10;;;9.70;93.80;;;;;;4973559;28;20567;-78
2021/05/05 01:21:29;;;;;;;1.50;0.80;;;9.60;93.90;;;;;;4956280;28;20263;-78
2021/05/05 01:23:55;;;;;;;2.23;0.90;;;9.60;93.90;;;;;;4973489;28;20727;-78
2021/05/05 01:26:21;;;;;;;2.10;0.80;;;9.60;93.80;;;;;;4973246;28;20182;-78
2021/05/05 01:28:47;;;;;;;1.10;0.60;;;9.60;93.80;;;;;;4956021;28;20598;-78
2021/05/05 01:31:16;;;;;;;2.28;0.80;;;9.60;93.80;;;;;;4956145;28;20575;-78
2021/05/05 01:33:42;;;;;;;2.25;1.23;;;9.60;93.90;;;;;;4956136;28;20199;-78
2021/05/05 01:36:12;;;;;;;2.50;0.95;;;9.60;93.90;;;;;;4955938;28;20193;-79
2021/05/05 01:38:38;;;;;;;1.50;0.70;;;9.60;94.00;;;;;;4973138;28;20614;-78
2021/05/05 01:41:04;;;;;;;1.27;0.77;;;9.60;93.90;;;;;;4973378;28;20167;-79
2021/05/05 01:43:30;;;;;;;1.20;0.60;;;9.60;94.10;;;;;;4956446;28;20164;-79
2021/05/05 01:45:57;;;;;;;1.90;0.70;;;9.60;94.10;;;;;;4977304;28;20606;-77
2021/05/05 01:48:22;;;;;;;2.60;0.80;;;9.60;94.20;;;;;;4973053;28;20632;-77
2021/05/05 01:50:48;;;;;;;1.70;0.80;;;9.60;94.60;;;;;;4973095;28;20179;-77
2021/05/05 01:53:16;;;;;;;2.90;0.80;;;9.60;94.20;;;;;;4973192;28;21182;-78
2021/05/05 01:55:44;;;;;;;1.75;0.95;;;9.60;94.20;;;;;;4973103;28;20576;-78
2021/05/05 01:58:11;;;;;;;3.40;1.20;;;9.60;94.30;;;;;;4939744;28;20199;-78
2021/05/05 02:00:38;;;;;;;2.20;0.80;;;9.60;94.20;;;;;;4972980;28;20587;-78
2021/05/05 02:03:10;;;;;;;2.83;0.90;;;9.60;94.20;;;;;;4955886;28;20640;-78
2021/05/05 02:05:46;;;;;;;1.73;0.90;;;9.60;94.30;;;;;;4955719;28;20571;-78
2021/05/05 02:08:26;;;;;;;3.10;1.30;;;9.60;94.20;;;;;;4955547;28;20175;-78
2021/05/05 02:10:53;;;;;;;2.88;1.80;;;9.60;94.10;;;;;;4956491;28;20175;-77
2021/05/05 02:13:19;;;;;;;4.13;1.40;;;9.50;94.20;;;;;;4955577;28;20168;-78
2021/05/05 02:15:45;;;;;;;3.83;2.50;;;9.50;94.30;;;;;;4972940;28;20323;-78
2021/05/05 02:18:13;;;;;;;3.20;1.85;;;9.50;94.50;;;;;;4955137;28;20680;-78
2021/05/05 02:20:41;;;;;;;4.25;2.03;;;9.40;94.70;;;;;;4973003;28;20259;-78
2021/05/05 02:23:09;;;;;;;3.20;2.30;;;9.40;94.60;;;;;;4960261;28;20176;-78
2021/05/05 02:25:38;;;;;;;2.95;1.75;;;9.30;94.60;;;;;;4942882;28;20164;-79
2021/05/05 02:28:09;;;;;;;3.90;2.20;;;9.30;94.80;;;;;;4976411;28;20536;-79
2021/05/05 02:31:06;;;;;;;3.60;1.90;;;9.30;95.00;;;;;;4959570;28;20175;-79
2021/05/05 02:33:34;;;;;;;3.42;1.65;;;9.20;94.90;;;;;;4959608;28;20172;-78
2021/05/05 02:35:59;;;;;;;2.87;1.33;;;9.20;95.10;;;;;;4976694;28;20175;-79
2021/05/05 02:38:25;;;;;;;2.90;1.20;;;9.10;95.10;;;;;;4959051;28;20255;-78
2021/05/05 02:40:51;;;;;;;3.35;1.00;;;9.10;95.20;;;;;;4959277;28;20547;-79
2021/05/05 02:43:20;;;;;;;2.75;1.23;;;9.10;95.30;;;;;;4937168;28;20164;-79
2021/05/05 02:45:46;;;;;;;1.60;1.10;;;9.00;95.50;;;;;;4959265;28;20666;-79
2021/05/05 02:48:12;;;;;;;2.65;1.13;;;9.10;95.60;;;;;;4953876;28;20168;-80
2021/05/05 02:50:39;;;;;;;3.70;1.10;;;9.00;95.70;;;;;;4975048;28;20171;-80
2021/05/05 02:53:06;;;;;;;2.67;1.10;;;9.00;95.80;;;;;;4976438;28;20214;-80
2021/05/05 02:55:32;;;;;;;2.63;1.10;;;9.00;95.90;;;;;;4970650;28;20630;-79
2021/05/05 02:57:58;;;;;;;2.22;1.20;;;9.00;96.20;;;;;;4977143;28;20684;-80
2021/05/05 03:00:24;;;;;;;3.17;1.00;;;9.10;96.40;;;;;;4977054;28;20603;-79
2021/05/05 03:02:49;;;;;;;1.90;0.90;;;9.10;96.50;;;;;;4976034;28;20167;-79
2021/05/05 03:05:15;;;;;;;3.33;1.20;;;9.20;96.60;;;;;;4976185;28;20571;-79
2021/05/05 03:07:41;;;;;;;2.72;1.10;;;9.20;96.70;;;;;;4975854;28;20179;-79
2021/05/05 03:10:08;;;;;;;3.10;1.70;;;9.20;96.70;;;;;;4976075;28;20188;-79
2021/05/05 03:12:34;;;;;;;3.17;1.20;;;9.20;96.70;;;;;;4976115;28;20259;-79
2021/05/05 03:15:00;;;;;;;3.60;1.37;;;9.30;96.80;;;;;;4976034;28;20255;-79
2021/05/05 03:17:26;;;;;;;4.75;1.80;;;9.30;96.90;;;;;;4975632;28;20199;-79
2021/05/05 03:19:52;;;;;;;4.47;1.73;;;9.30;96.90;;;;;;4971684;28;20699;-78
2021/05/05 03:22:19;;;;;;;5.00;1.70;;;9.40;97.00;;;;;;4964322;28;20640;-79
2021/05/05 03:24:44;;;;;;;4.47;1.20;;;9.50;97.10;;;;;;4975644;28;20167;-79
2021/05/05 03:27:10;;;;;;;2.23;1.23;;;9.50;97.20;;;;;;4975562;28;20194;-79
2021/05/05 03:29:36;;;;;;;2.20;1.10;;;9.50;97.20;;;;;;4969790;28;21161;-79
2021/05/05 03:32:02;;;;;;;2.80;1.30;;;9.60;97.20;;;;;;4975753;28;20178;-79
2021/05/05 03:34:28;;;;;;;4.03;1.50;;;9.60;97.10;;;;;;4965337;28;20163;-79
2021/05/05 03:36:53;;;;;;;3.70;1.30;;;9.60;97.10;;;;;;4946592;28;20638;-79
2021/05/05 03:39:19;;;;;;;1.77;1.17;;;9.60;97.40;;;;;;4957934;28;20545;-79
2021/05/05 03:41:45;;;;;;;4.50;1.57;;;9.60;97.00;;;;;;4975487;28;20190;-79
2021/05/05 03:44:11;;;;;;;2.83;1.60;;;9.60;96.90;;;;;;4975389;28;20252;-79
2021/05/05 03:46:40;;;;;;;5.10;1.57;;;9.60;96.90;;;;;;4974842;28;20168;-78
2021/05/05 03:49:07;;;;;;;2.15;1.38;;;9.50;96.80;;;;;;4958173;28;20623;-80
2021/05/05 03:51:33;;;;;;;4.05;1.20;;;9.50;96.90;;;;;;4975201;28;20164;-79
2021/05/05 03:53:59;;;;;;;3.65;1.20;;;9.40;96.90;;;;;;4975142;28;20218;-79
2021/05/05 03:56:25;;;;;;;5.30;2.03;;;9.30;97.00;;;;;;4974804;28;20290;-79
2021/05/05 03:58:50;;;;;;;6.18;1.65;;;9.30;97.00;;;;;;4974814;28;20226;-79
2021/05/05 04:01:16;;;;;;;3.20;1.90;;;9.20;97.10;;;;;;4957992;28;20722;-76
2021/05/05 04:03:42;;;;;;;4.10;1.67;;;9.20;97.30;;;;;;4975018;28;20171;-76
2021/05/05 04:06:07;;;;;;;5.00;2.07;;;9.20;97.40;;;;;;4974882;28;20179;-76
2021/05/05 04:08:33;;;;;;;5.83;1.60;;;9.20;97.60;;;;;;4974540;28;20195;-77
2021/05/05 04:10:59;;;;;;;5.00;1.60;;;9.20;97.60;;;;;;4958357;28;20174;-77
2021/05/05 04:13:25;;;;;;;4.05;1.45;;;9.10;97.60;;;;;;4955182;29;20633;-77
2021/05/05 04:15:51;;;;;;;8.73;1.50;;;9.10;97.70;;;;;;4922427;29;20173;-77
2021/05/05 04:18:17;;;;;;;4.03;1.60;;;9.10;97.90;;;;;;4918655;29;21168;-77
2021/05/05 04:20:43;;;;;;;4.57;1.70;;;9.10;97.90;;;;;;4941318;29;20251;-77
2021/05/05 04:23:09;;;;;;;3.75;2.15;;;9.10;97.90;;;;;;4918163;29;20636;-77
2021/05/05 04:25:35;;;;;;;5.78;1.92;;;9.10;98.20;;;;;;4938105;29;20193;-77
2021/05/05 04:28:01;;;;;;;3.87;1.47;;;9.10;98.20;;;;;;4918775;29;20228;-77
2021/05/05 04:30:26;;;;;;;5.03;2.57;;;9.10;98.30;;;;;;4935956;29;20661;-77
2021/05/05 04:32:52;;;;;;;3.37;1.60;;;9.10;98.30;;;;;;4918904;29;20181;-77
2021/05/05 04:35:20;;;;;;;3.13;1.37;;;9.10;98.30;;;;;;4935812;29;20272;-77
2021/05/05 04:37:45;;;;;;;5.35;1.70;;;9.10;98.40;;;;;;4935302;29;20279;-77
2021/05/05 04:40:11;;;;;;;7.00;2.17;;;9.10;98.60;;;;;;4935595;29;20201;-77
2021/05/05 04:42:38;;;;;;;2.75;1.73;;;9.20;98.80;;;;;;4935799;29;20172;-77
2021/05/05 04:45:05;;;;;;;2.85;1.58;;;9.20;98.90;;;;;;4902906;29;20181;-77
2021/05/05 04:47:33;;;;;;;5.20;1.58;;;9.30;99.00;;;;;;4917645;29;20177;-77
2021/05/05 04:49:58;;;;;;;3.33;1.70;;;9.30;99.10;;;;;;4941841;29;20201;-78
2021/05/05 04:52:24;;;;;;;7.37;1.90;;;9.40;99.10;;;;;;4935535;29;20256;-77
2021/05/05 04:54:50;;;;;;;7.73;2.10;;;9.50;99.10;;;;;;4935452;29;20165;-78
2021/05/05 04:57:16;;;;;;;3.40;2.50;;;9.60;99.10;;;;;;4935050;29;20232;-77
2021/05/05 04:59:41;;;;;;;4.90;1.90;;;9.60;99.00;;;;;;4935192;29;20200;-77
2021/05/05 05:02:08;;;;;;;7.73;1.90;;;9.70;99.00;;;;;;4935448;29;20162;-77
2021/05/05 05:04:37;;;;;;;4.30;1.73;;;9.80;98.90;;;;;;4935359;29;20252;-77
2021/05/05 05:19:24;;;;;;;3.47;1.77;;;10.10;98.30;;;;;;4935253;29;20212;-77
2021/05/05 05:21:50;;;;;;;4.65;1.92;;;10.10;97.80;;;;;;4934908;29;20169;-78
2021/05/05 05:24:15;;;;;;;3.93;1.90;;;10.20;98.10;;;;;;4918119;29;20180;-77
2021/05/05 05:26:41;;;;;;;3.17;2.33;;;10.30;98.20;;;;;;4938879;29;20173;-77
2021/05/05 05:29:07;;;;;;;4.60;2.70;;;10.40;98.30;;;;;;4935113;29;20649;-77
2021/05/05 05:31:33;;;;;;;5.17;2.40;;;10.40;98.20;;;;;;4934854;29;20192;-77
2021/05/05 05:33:59;;;;;;;3.78;1.80;;;10.50;98.10;;;;;;4934680;29;21004;-76
2021/05/05 05:36:24;;;;;;;4.67;2.10;;;10.50;98.20;;;;;;4934411;29;20302;-77
2021/05/05 05:38:50;;;;;;;4.53;1.80;;;10.60;98.20;;;;;;4917536;29;20557;-76
2021/05/05 05:41:16;;;;;;;4.13;1.80;;;10.70;98.20;;;;;;4934519;29;20195;-75
2021/05/05 05:43:42;;;;;;;5.47;1.97;;;10.80;98.20;;;;;;4935060;29;20177;-76
2021/05/05 05:46:09;;;;;;;5.90;3.00;;;10.80;98.20;;;;;;4934027;29;20710;-76
2021/05/05 05:48:35;;;;;;;6.07;2.47;;;10.80;98.70;;;;;;4934344;29;20189;-76
2021/05/05 05:51:01;;;;;;;10.33;3.00;;;10.90;98.40;;;;;;4934647;29;20184;-76
2021/05/05 05:53:26;;;;;;;4.90;1.83;;;11.00;98.30;;;;;;4934722;29;21022;-77
2021/05/05 05:55:52;;;;;;;5.80;2.40;;;11.10;98.10;;;;;;4916917;29;20742;-76
2021/05/05 05:58:18;;;;;;;3.07;2.17;;;11.10;98.40;;;;;;4917052;28;20696;-76
2021/05/05 06:00:44;;;;;;;5.03;2.50;;;11.10;98.10;;;;;;4934348;29;21111;-75
2021/05/05 06:03:09;;;;;;;5.27;2.23;;;11.10;98.10;;;;;;4949727;29;20180;-77
2021/05/05 06:05:36;;;;;;;6.60;2.90;;;11.20;97.90;;;;;;4954804;29;20723;-75
2021/05/05 06:08:03;;;;;;;5.50;3.30;;;11.10;98.70;;;;;;4953452;29;20587;-76
2021/05/05 06:10:28;;;;;;;9.38;3.15;;;11.20;98.40;;;;;;4952925;29;20192;-75
2021/05/05 06:12:54;;;;;;;6.20;2.97;;;11.50;99.00;;;;;;4953518;29;20175;-75
2021/05/05 06:15:20;;;;;;;5.17;2.73;;;11.80;98.70;;;;;;4953187;29;20629;-74
2021/05/05 06:17:47;;;;;;;4.22;2.42;;;12.00;98.50;;;;;;4952880;29;20669;-75
2021/05/05 06:20:13;;;;;;;5.35;2.70;;;12.10;98.00;;;;;;4953465;29;20559;-74
2021/05/05 06:22:39;;;;;;;3.20;1.90;;;12.20;97.60;;;;;;4953253;29;20187;-75
2021/05/05 06:25:07;;;;;;;7.40;3.07;;;12.20;97.40;;;;;;4953599;28;20176;-74
2021/05/05 06:27:34;;;;;;;9.35;2.65;;;12.30;97.20;;;;;;4936184;29;20542;-74
2021/05/05 06:30:00;;;;;;;7.88;3.78;;;12.30;97.00;;;;;;4953052;28;20200;-74
2021/05/05 06:32:26;;;;;;;4.93;3.75;;;12.30;96.90;;;;;;4936060;29;20164;-75
2021/05/05 06:34:53;;;;;;;6.73;3.90;;;12.30;96.90;;;;;;4936250;29;20191;-74
2021/05/05 06:37:20;;;;;;;10.98;2.95;;;12.30;96.80;;;;;;4953188;29;20223;-75
2021/05/05 06:39:46;;;;;;;7.32;3.00;;;12.30;96.80;;;;;;4968976;28;20192;-75
2021/05/05 06:42:12;;;;;;;5.03;2.30;;;12.30;96.90;;;;;;4975781;28;20203;-75
2021/05/05 06:44:37;;;;;;;6.03;2.85;;;12.30;96.70;;;;;;4962471;28;20176;-75
2021/05/05 06:47:03;;;;;;;3.93;2.57;;;12.50;96.70;;;;;;4953170;28;20596;-76
2021/05/05 06:49:32;;;;;;;6.93;2.57;;;12.50;96.70;;;;;;4970384;28;20598;-75
2021/05/05 06:51:58;;;;;;;3.95;2.38;;;12.60;96.50;;;;;;4955501;28;20493;-75
2021/05/05 06:54:24;;;;;;;5.65;2.70;;;12.70;96.30;;;;;;4961248;28;20724;-75
2021/05/05 06:56:50;;;;;;;4.03;2.60;;;12.80;95.50;;;;;;4935417;29;20563;-76
2021/05/05 06:59:16;;;;;;;3.50;2.00;;;13.00;95.80;;;;;;4953416;29;20619;-75
2021/05/05 07:01:42;;;;;;;3.77;2.27;;;13.00;95.60;;;;;;4942866;28;20172;-75
2021/05/05 07:04:09;;;;;;;10.67;3.30;;;13.00;95.50;;;;;;4972443;28;20659;-75
2021/05/05 07:06:35;;;;;;;6.10;1.83;;;12.90;95.10;;;;;;4966357;28;20539;-75
2021/05/05 07:09:02;;;;;;;2.67;1.30;;;12.70;94.80;;;;;;4972396;28;20223;-75
2021/05/05 07:11:28;;;;;;;1.70;1.00;;;12.40;94.50;;;;;;4974267;28;20560;-75
2021/05/05 07:13:54;;;;;;;3.50;0.80;;;12.20;94.30;;;;;;4975955;28;20279;-74
2021/05/05 07:16:21;;;;;;;1.80;0.75;;;11.80;94.20;;;;;;4975597;28;20258;-75
2021/05/05 07:18:47;;;;;;;1.60;0.63;;;11.40;94.20;;;;;;4963254;28;20183;-74
2021/05/05 07:21:14;;;;;;;2.30;0.65;;;11.10;94.60;;;;;;4958624;28;20204;-76
2021/05/05 07:23:40;;;;;;;2.00;0.70;;;10.80;94.80;;;;;;4974139;28;20790;-75
2021/05/05 07:26:05;;;;;;;1.80;0.83;;;10.60;95.40;;;;;;4956231;29;20252;-75
2021/05/05 07:28:31;;;;;;;1.50;0.80;;;10.40;95.80;;;;;;4955977;28;20184;-74
2021/05/05 07:30:58;;;;;;;1.73;1.00;;;10.30;96.40;;;;;;4956214;29;20168;-75
2021/05/05 07:33:25;;;;;;;2.08;1.20;;;10.30;97.10;;;;;;4922978;29;20576;-74
2021/05/05 07:35:52;;;;;;;2.15;1.40;;;10.40;98.00;;;;;;4939135;29;20171;-75
2021/05/05 07:46:05;;;;;;;2.57;1.60;;;12.90;99.90;;;;;;4956104;29;20260;-76
2021/05/05 07:51:03;;;;;;;2.07;1.33;;;15.30;99.90;;;;;;4955949;29;21034;-75
2021/05/05 07:53:29;;;;;;;4.73;1.50;;;16.30;99.90;;;;;;4939045;29;20707;-76
2021/05/05 07:55:56;;;;;;;2.53;1.70;;;17.10;99.90;;;;;;4943384;29;20568;-76
2021/05/05 07:58:22;;;;;;;2.80;1.70;;;17.50;97.50;;;;;;4955344;28;20624;-76
2021/05/05 08:00:48;;;;;;;3.13;1.40;;;17.50;95.40;;;;;;4956266;29;20579;-76
2021/05/05 08:03:14;;;;;;;3.83;1.43;;;17.30;93.20;;;;;;4956200;29;20564;-76
2021/05/05 08:05:40;;;;;;;3.80;1.40;;;17.00;92.60;;;;;;4938825;29;20572;-76
2021/05/05 08:08:06;;;;;;;2.77;1.47;;;16.60;92.10;;;;;;4956028;29;20559;-76
2021/05/05 08:10:32;;;;;;;2.40;1.70;;;16.40;92.00;;;;;;4955249;28;20228;-77
2021/05/05 08:12:57;;;;;;;2.70;1.20;;;16.10;91.80;;;;;;4955922;29;20188;-76
2021/05/05 08:15:27;;;;;;;2.37;1.30;;;15.90;92.00;;;;;;4955513;29;20176;-76
2021/05/05 08:17:52;;;;;;;4.07;1.70;;;15.80;91.80;;;;;;4937106;29;21160;-76
2021/05/05 08:20:18;;;;;;;3.43;1.60;;;15.30;90.30;;;;;;4955013;28;20188;-76
2021/05/05 08:22:45;;;;;;;2.67;1.50;;;15.10;90.70;;;;;;4954110;28;20172;-76
2021/05/05 08:25:11;;;;;;;1.65;1.15;;;14.90;89.70;;;;;;4955078;29;20160;-75
2021/05/05 08:27:37;;;;;;;2.78;1.38;;;14.50;88.20;;;;;;4921333;29;20267;-77
2021/05/05 08:30:04;;;;;;;1.70;0.90;;;14.00;88.20;;;;;;4954898;28;20335;-76
2021/05/05 08:32:30;;;;;;;1.85;1.00;;;13.60;88.60;;;;;;4960507;29;20255;-76
2021/05/05 08:34:55;;;;;;;1.67;0.87;;;13.10;89.20;;;;;;4955030;29;20263;-75
2021/05/05 08:37:21;;;;;;;2.63;1.30;;;12.70;89.80;;;;;;4954679;29;20294;-75
2021/05/05 08:39:47;;;;;;;1.90;0.90;;;12.30;90.20;;;;;;4938002;29;20620;-76
2021/05/05 08:42:15;;;;;;;1.77;1.00;;;11.90;90.60;;;;;;4938427;29;20595;-76
2021/05/05 08:44:45;;;;;;;2.00;1.13;;;11.50;91.20;;;;;;4955698;29;20169;-75
2021/05/05 08:47:11;;;;;;;1.50;1.00;;;11.20;91.80;;;;;;4954873;29;20176;-76
2021/05/05 08:49:37;;;;;;;1.90;1.40;;;11.00;92.30;;;;;;4955036;28;20196;-75
2021/05/05 08:52:03;;;;;;;1.93;1.10;;;10.80;93.10;;;;;;4955523;29;20217;-76
2021/05/05 08:54:28;;;;;;;2.03;0.82;;;10.60;93.80;;;;;;4954832;29;20207;-75
2021/05/05 08:56:54;;;;;;;2.20;1.40;;;10.40;94.20;;;;;;4937172;29;20208;-75
2021/05/05 08:59:21;;;;;;;2.63;1.47;;;10.30;94.90;;;;;;4936940;29;20204;-75
2021/05/05 09:01:46;;;;;;;4.68;1.73;;;10.20;95.60;;;;;;4937249;29;20633;-75
2021/05/05 09:04:14;;;;;;;1.40;1.20;;;10.10;96.40;;;;;;4938124;29;20179;-75
2021/05/05 09:06:45;;;;;;;3.35;2.00;;;10.20;97.20;;;;;;4937418;29;20191;-76
2021/05/05 09:09:12;;;;;;;1.70;1.20;;;10.20;98.30;;;;;;4959666;28;20283;-76
2021/05/05 09:11:45;;;;;;;1.30;0.90;;;10.20;98.30;;;;;;4954143;29;20210;-76
2021/05/05 09:14:11;;;;;;;2.40;1.38;;;10.40;99.00;;;;;;4937038;29;20239;-76
2021/05/05 09:16:38;;;;;;;2.00;1.00;;;10.50;99.30;;;;;;4953691;29;20607;-76
2021/05/05 09:19:10;;;;;;;1.92;1.00;;;10.80;99.90;;;;;;4954268;28;20719;-75
2021/05/05 09:21:44;;;;;;;1.80;1.00;;;11.30;99.90;;;;;;4954050;29;20632;-75
2021/05/05 09:24:17;;;;;;;2.22;0.93;;;12.20;99.90;;;;;;4953907;29;20169;-75
2021/05/05 09:26:44;;;;;;;2.42;0.80;;;13.30;99.90;;;;;;4953762;29;20180;-75
2021/05/05 09:29:10;;;;;;;2.23;0.80;;;14.60;99.90;;;;;;4953888;28;20274;-77
2021/05/05 09:31:38;;;;;;;2.67;0.90;;;15.70;99.90;;;;;;4954008;29;20667;-76
2021/05/05 09:34:07;;;;;;;2.27;0.80;;;16.50;99.90;;;;;;4953781;28;20172;-75
2021/05/05 09:36:33;;;;;;;2.20;0.90;;;17.40;99.90;;;;;;4953523;29;20627;-75
2021/05/05 09:39:02;;;;;;;4.07;0.93;;;18.40;99.90;;;;;;4953788;28;20592;-75
2021/05/05 09:41:33;;;;;;;2.63;1.00;;;19.00;98.10;;;;;;4936434;29;20588;-75
2021/05/05 09:44:05;;;;;;;2.63;0.90;;;19.50;96.50;;;;;;4937011;29;21264;-76
2021/05/05 09:46:46;;;;;;;5.13;1.27;;;20.10;95.30;;;;;;4957341;29;20933;-75
2021/05/05 09:49:34;;;;;;;4.37;1.33;;;20.70;90.60;;;;;;4953735;28;20986;-76
2021/05/05 09:52:04;;;;;;;3.57;1.40;;;20.80;90.80;;;;;;4953757;29;20635;-76
2021/05/05 09:54:52;;;;;;;2.33;1.10;;;20.70;86.30;;;;;;4953777;29;20975;-76
2021/05/05 09:57:34;;;;;;;3.33;0.93;;;20.40;81.30;;;;;;4953324;29;20708;-76
2021/05/05 10:00:09;;;;;;;1.73;0.83;;;20.00;81.70;;;;;;4959207;28;20690;-80
2021/05/05 10:02:46;;;;;;;5.07;1.90;;;19.90;83.00;;;;;;4975987;28;20996;-80
2021/05/05 10:05:14;;;;;;;7.00;1.70;;;19.80;79.60;;;;;;4958136;28;20559;-79
2021/05/05 10:08:00;;;;;;;2.10;1.10;;;19.80;82.10;;;;;;4955305;28;20591;-79
2021/05/05 10:10:29;;;;;;;4.43;1.27;;;20.10;83.60;;;;;;4957469;28;20690;-79
2021/05/05 10:12:56;;;;;;;1.73;1.13;;;20.70;81.10;;;;;;4957532;28;20579;-79
2021/05/05 10:15:22;;;;;;;3.67;1.63;;;20.80;79.40;;;;;;4955916;28;20582;-79
2021/05/05 10:17:51;;;;;;;2.80;1.53;;;20.70;76.90;;;;;;4974055;28;20622;-79
2021/05/05 10:20:20;;;;;;;2.93;1.10;;;20.70;72.10;;;;;;4956363;28;20607;-79
2021/05/05 10:22:46;;;;;;;3.57;1.27;;;20.90;73.00;;;;;;4959089;28;20631;-79
2021/05/05 10:25:17;;;;;;;4.30;1.50;;;21.20;74.90;;;;;;4958924;28;20571;-80
2021/05/05 10:27:43;;;;;;;4.20;1.77;;;21.50;73.00;;;;;;4957520;28;20607;-80
2021/05/05 10:30:13;;;;;;;3.23;1.23;;;21.40;67.90;;;;;;4972952;28;20610;-81
2021/05/05 10:32:41;;;;;;;4.40;1.70;;;21.20;66.40;;;;;;4955005;28;20685;-81
2021/05/05 10:35:08;;;;;;;4.57;1.80;;;20.80;66.20;;;;;;4955478;28;20571;-80
2021/05/05 10:37:41;;;;;;;3.27;1.23;;;20.50;65.20;;;;;;4955029;28;20638;-80
2021/05/05 10:40:14;;;;;;;5.33;1.97;;;20.20;64.50;;;;;;4942836;28;20926;-81
2021/05/05 10:42:49;;;;;;;6.70;2.10;;;19.80;62.70;;;;;;4903673;29;21389;-80
2021/05/05 10:45:44;;;;;;;4.37;1.73;;;19.50;63.40;;;;;;4929705;29;20591;-81
2021/05/05 10:48:16;;;;;;;3.20;1.47;;;19.10;62.60;;;;;;4941887;29;20581;-80
2021/05/05 10:50:47;;;;;;;2.30;1.23;;;18.70;62.40;;;;;;4938576;29;20671;-80
2021/05/05 10:53:14;;;;;;;3.47;1.50;;;18.40;63.00;;;;;;4925464;29;20583;-79
2021/05/05 10:55:43;;;;;;;3.77;1.77;;;18.40;65.10;;;;;;4958128;29;20572;-80
2021/05/05 10:58:18;;;;;;;2.27;1.30;;;18.50;66.70;;;;;;4940738;29;20663;-80
2021/05/05 11:00:49;;;;;;;5.30;3.83;;;18.70;66.70;;;;;;4961913;29;20582;-80
2021/05/05 11:03:17;;;;;;;3.50;1.47;;;19.10;68.70;;;;;;4959232;29;20556;-79
2021/05/05 11:05:45;;;;;;;2.00;0.93;;;19.30;67.40;;;;;;4924493;29;20918;-80
2021/05/05 11:08:29;;;;;;;1.50;0.90;;;19.40;68.50;;;;;;4956155;28;20567;-80
2021/05/05 11:10:58;;;;;;;2.27;0.77;;;19.70;67.10;;;;;;4957287;29;20567;-80
2021/05/05 11:13:29;;;;;;;1.83;0.93;;;20.00;69.00;;;;;;4939253;29;21139;-80
2021/05/05 11:15:56;;;;;;;4.00;1.00;;;20.20;69.30;;;;;;4958124;29;20621;-80
2021/05/05 11:18:25;;;;;;;3.73;1.00;;;20.40;68.10;;;;;;4958373;28;20623;-79
2021/05/05 11:20:55;;;;;;;2.00;1.00;;;20.60;67.10;;;;;;4940682;29;20607;-80
2021/05/05 11:23:33;;;;;;;3.27;1.10;;;20.80;67.60;;;;;;4958234;29;20568;-80
2021/05/05 11:26:22;;;;;;;4.33;1.10;;;20.90;65.60;;;;;;4940416;29;20622;-80
2021/05/05 11:28:57;;;;;;;2.33;0.83;;;20.90;63.30;;;;;;4958872;28;20599;-80
2021/05/05 11:31:48;;;;;;;2.87;1.07;;;20.90;63.00;;;;;;4941042;29;20572;-80
2021/05/05 11:34:23;;;;;;;2.20;0.90;;;20.70;60.40;;;;;;4944402;29;21049;-80
2021/05/05 11:36:55;;;;;;;5.67;1.50;;;20.50;59.20;;;;;;4943159;29;20642;-80
2021/05/05 11:39:36;;;;;;;1.80;1.00;;;20.20;58.90;;;;;;4957362;28;20619;-80
2021/05/05 11:42:28;;;;;;;3.87;1.20;;;19.90;58.30;;;;;;4957196;29;20598;-79
2021/05/05 11:44:57;;;;;;;4.03;1.30;;;19.50;58.10;;;;;;4938927;29;20634;-80
2021/05/05 11:47:34;;;;;;;4.10;1.20;;;19.20;58.80;;;;;;4955367;29;20619;-80
2021/05/05 11:50:04;;;;;;;3.00;0.93;;;18.90;58.40;;;;;;4955773;28;21052;-79
2021/05/05 11:52:33;;;;;;;4.33;1.17;;;18.70;58.40;;;;;;4938716;29;20584;-79
2021/05/05 11:55:08;;;;;;;4.40;1.20;;;18.50;59.10;;;;;;4939229;29;20580;-80
2021/05/05 11:57:51;;;;;;;2.43;1.00;;;18.40;59.30;;;;;;4955220;28;20662;-80
2021/05/05 12:00:25;;;;;;;6.60;1.30;;;18.30;59.50;;;;;;4939726;29;20620;-80
2021/05/05 12:03:00;;;;;;;3.57;2.07;;;18.20;58.70;;;;;;4956990;29;20727;-80
2021/05/05 12:05:36;;;;;;;3.43;1.73;;;18.10;58.60;;;;;;4923951;29;20970;-80
2021/05/05 12:08:04;;;;;;;3.70;1.17;;;17.90;58.40;;;;;;4955900;29;20583;-80
2021/05/05 12:10:48;;;;;;;3.77;1.13;;;17.80;58.40;;;;;;4955647;28;20925;-79
2021/05/05 12:13:26;;;;;;;2.43;1.20;;;17.50;58.00;;;;;;4942793;29;20992;-80
2021/05/05 12:18:36;;;;;;;2.70;1.63;;;17.10;59.10;;;;;;4955192;28;20619;-80
2021/05/05 12:21:12;;;;;;;3.23;1.00;;;17.00;60.50;;;;;;4956265;29;20718;-81
2021/05/05 12:23:40;;;;;;;3.10;0.90;;;17.10;60.80;;;;;;4955390;29;20568;-81
2021/05/05 12:26:25;;;;;;;2.30;0.90;;;17.00;59.80;;;;;;4955078;29;20572;-81
2021/05/05 12:28:56;;;;;;;3.13;1.30;;;16.90;59.80;;;;;;4955826;28;20591;-80
2021/05/05 12:31:27;;;;;;;2.33;1.10;;;16.90;59.80;;;;;;4955455;29;20568;-80
2021/05/05 12:33:54;;;;;;;2.17;0.90;;;16.90;59.90;;;;;;4955856;29;20581;-81
2021/05/05 12:36:22;;;;;;;2.07;0.90;;;16.90;59.20;;;;;;4923419;29;20572;-81
2021/05/05 12:39:19;;;;;;;3.60;1.47;;;16.90;59.30;;;;;;4941181;29;20651;-81
2021/05/05 12:41:52;;;;;;;5.17;1.13;;;17.00;58.00;;;;;;4964648;29;20684;-81
2021/05/05 12:44:19;;;;;;;2.67;1.37;;;16.90;58.40;;;;;;4964370;29;20573;-81
2021/05/05 12:46:56;;;;;;;10.43;1.80;;;16.80;57.80;;;;;;4956328;29;20927;-81
2021/05/05 12:49:30;;;;;;;3.50;1.10;;;16.70;58.00;;;;;;4957677;28;20600;-81
2021/05/05 12:51:56;;;;;;;3.23;0.80;;;16.50;58.70;;;;;;4942560;29;20582;-80
2021/05/05 12:54:29;;;;;;;3.70;1.43;;;16.20;58.60;;;;;;4938570;29;20591;-79
2021/05/05 12:56:55;;;;;;;3.50;1.20;;;16.00;59.20;;;;;;4937633;29;20635;-80
2021/05/05 12:59:30;;;;;;;3.03;0.97;;;15.80;60.00;;;;;;4955086;28;20196;-80
2021/05/05 13:02:10;;;;;;;2.63;0.80;;;15.60;61.00;;;;;;4955950;29;20602;-80
2021/05/05 13:04:38;;;;;;;2.28;0.70;;;15.30;61.70;;;;;;4937906;29;20180;-79
2021/05/05 13:07:05;;;;;;;4.63;0.93;;;15.10;61.70;;;;;;4930863;28;20180;-80
2021/05/05 13:09:32;;;;;;;2.00;1.15;;;14.80;62.10;;;;;;4955961;28;20278;-79
2021/05/05 13:12:12;;;;;;;1.80;0.80;;;14.60;62.60;;;;;;4969979;28;20687;-79
2021/05/05 13:14:45;;;;;;;1.55;0.80;;;14.50;64.40;;;;;;4978772;28;20527;-80
2021/05/05 13:25:55;;;;;;;4.80;1.23;;;14.50;66.90;;;;;;4956616;28;20218;-79
2021/05/05 13:31:46;;;;;;;3.60;1.20;;;14.50;67.00;;;;;;4933279;29;20173;-80
2021/05/05 13:34:12;;;;;;;3.22;0.90;;;14.50;67.10;;;;;;4932922;29;20192;-79